createdAt,value
2023-01-09T00:00:27.245Z,53.65
2023-01-09T00:01:27.214Z,58.44
2023-01-09T00:02:27.235Z,50.88
2023-01-09T00:03:27.196Z,47.76
2023-01-09T00:04:27.264Z,42.07
2023-01-09T00:05:27.178Z,50.76
2023-01-09T00:06:27.170Z,53.35
2023-01-09T00:07:27.160Z,46.73
2023-01-09T00:08:27.149Z,46.11
2023-01-09T00:09:27.170Z,57.42
2023-01-09T00:10:27.141Z,61.76
2023-01-09T00:11:27.133Z,60.31
2023-01-09T00:12:27.119Z,50.22
2023-01-09T00:13:27.116Z,48.61
2023-01-09T00:14:27.134Z,51.07
2023-01-09T00:15:27.097Z,59.75
2023-01-09T00:16:27.205Z,43.52
2023-01-09T00:17:27.083Z,46.88
2023-01-09T00:18:27.074Z,46.11
2023-01-09T00:19:27.094Z,54.63
2023-01-09T00:20:27.073Z,46.90
2023-01-09T00:21:27.060Z,52.67
2023-01-09T00:22:27.044Z,55.70
2023-01-09T00:23:27.034Z,51.90
2023-01-09T00:24:27.057Z,54.44
2023-01-09T00:25:27.027Z,46.82
2023-01-09T00:26:27.013Z,47.60
2023-01-09T00:27:27.005Z,51.30
2023-01-09T00:28:27.003Z,46.49
2023-01-09T00:29:27.018Z,49.02
2023-01-09T00:30:27.007Z,58.85
2023-01-09T00:31:26.984Z,53.14
2023-01-09T00:32:26.970Z,53.03
2023-01-09T00:33:26.961Z,58.28
2023-01-09T00:34:26.988Z,61.36
2023-01-09T00:35:26.950Z,56.11
2023-01-09T00:36:26.945Z,59.58
2023-01-09T00:37:26.932Z,58.66
2023-01-09T00:38:26.925Z,53.23
2023-01-09T00:39:26.940Z,53.00
2023-01-09T00:40:26.919Z,53.18
2023-01-09T00:41:26.906Z,54.93
2023-01-09T00:42:26.897Z,61.45
2023-01-09T00:43:26.882Z,55.54
2023-01-09T00:44:26.905Z,53.88
2023-01-09T00:45:26.872Z,57.38
2023-01-09T00:46:26.871Z,55.63
2023-01-09T00:47:26.853Z,53.48
2023-01-09T00:48:26.871Z,54.24
2023-01-09T00:49:26.838Z,54.34
2023-01-09T00:50:26.854Z,53.23
2023-01-09T00:51:26.828Z,52.94
2023-01-09T00:52:26.822Z,56.89
2023-01-09T00:53:26.802Z,52.55
2023-01-09T00:54:26.794Z,50.68
2023-01-09T00:55:26.822Z,50.81
2023-01-09T00:56:26.781Z,53.56
2023-01-09T00:57:26.771Z,49.29
2023-01-09T00:58:26.765Z,48.20
2023-01-09T00:59:26.758Z,47.37
2023-01-09T01:00:26.777Z,46.97
2023-01-09T01:01:26.840Z,47.69
2023-01-09T01:02:26.839Z,50.35
2023-01-09T01:03:26.726Z,55.90
2023-01-09T01:04:26.716Z,53.65
2023-01-09T01:05:26.733Z,46.43
2023-01-09T01:06:26.701Z,49.70
2023-01-09T01:07:26.694Z,46.60
2023-01-09T01:08:26.690Z,56.19
2023-01-09T01:09:26.686Z,56.68
2023-01-09T01:10:26.702Z,50.50
2023-01-09T01:11:26.672Z,56.48
2023-01-09T01:12:26.655Z,51.92
2023-01-09T01:13:26.649Z,58.97
2023-01-09T01:14:26.636Z,51.03
2023-01-09T01:15:26.658Z,47.59
2023-01-09T01:16:26.723Z,46.83
2023-01-09T01:17:26.644Z,46.76
2023-01-09T01:18:26.606Z,51.08
2023-01-09T01:19:26.597Z,53.03
2023-01-09T01:20:26.619Z,47.83
2023-01-09T01:21:26.588Z,55.01
2023-01-09T01:22:26.575Z,53.08
2023-01-09T01:23:26.564Z,49.09
2023-01-09T01:24:26.557Z,51.78
2023-01-09T01:25:26.577Z,48.88
2023-01-09T01:26:26.545Z,50.58
2023-01-09T01:27:26.573Z,50.82
2023-01-09T01:28:26.528Z,49.73
2023-01-09T01:29:26.524Z,47.49
2023-01-09T01:30:26.569Z,54.89
2023-01-09T01:31:26.505Z,47.61
2023-01-09T01:32:26.501Z,48.03
2023-01-09T01:33:26.488Z,50.97
2023-01-09T01:34:26.481Z,45.95
2023-01-09T01:35:26.512Z,49.70
2023-01-09T01:36:26.481Z,48.00
2023-01-09T01:37:26.483Z,48.40
2023-01-09T01:38:26.455Z,46.36
2023-01-09T01:39:26.449Z,53.44
2023-01-09T01:40:26.473Z,49.65
2023-01-09T01:41:26.431Z,53.42
2023-01-09T01:42:26.422Z,48.44
2023-01-09T01:43:26.415Z,45.51
2023-01-09T01:44:26.410Z,46.68
2023-01-09T01:45:26.397Z,53.95
2023-01-09T01:46:26.421Z,58.74
2023-01-09T01:47:26.383Z,53.32
2023-01-09T01:48:26.375Z,47.74
2023-01-09T01:49:26.371Z,47.87
2023-01-09T01:50:26.391Z,53.74
2023-01-09T01:51:26.354Z,48.56
2023-01-09T01:52:26.346Z,46.38
2023-01-09T01:53:26.360Z,47.03
2023-01-09T01:54:26.334Z,52.98
2023-01-09T01:55:26.347Z,52.31
2023-01-09T01:56:26.316Z,48.65
2023-01-09T01:57:26.308Z,46.94
2023-01-09T01:58:26.304Z,52.17
2023-01-09T01:59:26.296Z,55.74
2023-01-09T02:00:26.320Z,47.38
2023-01-09T02:01:26.390Z,46.96
2023-01-09T02:02:26.344Z,53.91
2023-01-09T02:03:26.267Z,50.54
2023-01-09T02:04:26.258Z,56.30
2023-01-09T02:05:26.280Z,51.31
2023-01-09T02:06:26.248Z,52.57
2023-01-09T02:07:26.230Z,52.03
2023-01-09T02:08:26.232Z,52.66
2023-01-09T02:09:26.214Z,62.47
2023-01-09T02:10:26.204Z,58.86
2023-01-09T02:11:26.224Z,51.22
2023-01-09T02:12:26.185Z,52.42
2023-01-09T02:13:26.183Z,56.80
2023-01-09T02:14:26.175Z,58.73
2023-01-09T02:15:26.196Z,56.18
2023-01-09T02:16:26.168Z,54.70
2023-01-09T02:17:26.151Z,59.98
2023-01-09T02:18:26.165Z,59.24
2023-01-09T02:19:26.132Z,52.31
2023-01-09T02:20:26.126Z,51.76
2023-01-09T02:21:26.139Z,54.60
2023-01-09T02:22:26.113Z,50.53
2023-01-09T02:23:26.114Z,57.56
2023-01-09T02:24:26.097Z,47.71
2023-01-09T02:25:26.093Z,51.94
2023-01-09T02:26:26.108Z,57.21
2023-01-09T02:27:26.074Z,48.88
2023-01-09T02:28:26.058Z,58.09
2023-01-09T02:29:26.066Z,49.94
2023-01-09T02:30:26.053Z,55.07
2023-01-09T02:31:26.096Z,51.34
2023-01-09T02:32:26.035Z,50.88
2023-01-09T02:33:26.025Z,47.28
2023-01-09T02:34:26.021Z,48.75
2023-01-09T02:35:26.020Z,52.37
2023-01-09T02:36:26.038Z,51.21
2023-01-09T02:37:26.001Z,54.46
2023-01-09T02:38:26.000Z,53.68
2023-01-09T02:39:25.989Z,61.17
2023-01-09T02:40:25.983Z,56.70
2023-01-09T02:41:25.997Z,54.39
2023-01-09T02:42:25.965Z,52.77
2023-01-09T02:43:25.956Z,54.27
2023-01-09T02:44:25.968Z,52.85
2023-01-09T02:45:26.061Z,54.03
2023-01-09T02:46:25.961Z,52.30
2023-01-09T02:47:25.929Z,48.57
2023-01-09T02:48:25.927Z,45.59
2023-01-09T02:49:25.950Z,50.57
2023-01-09T02:50:25.897Z,48.18
2023-01-09T02:51:25.894Z,47.05
2023-01-09T02:52:25.887Z,53.95
2023-01-09T02:53:25.876Z,50.56
2023-01-09T02:54:25.903Z,47.44
2023-01-09T02:55:25.863Z,51.94
2023-01-09T02:56:25.856Z,57.89
2023-01-09T02:57:25.854Z,59.82
2023-01-09T02:58:25.839Z,50.91
2023-01-09T02:59:25.835Z,60.76
2023-01-09T03:00:25.850Z,62.49
2023-01-09T03:01:25.935Z,56.31
2023-01-09T03:02:25.812Z,44.57
2023-01-09T03:03:25.802Z,55.62
2023-01-09T03:04:25.792Z,54.18
2023-01-09T03:05:25.822Z,52.83
2023-01-09T03:06:27.579Z,54.01
2023-01-09T03:07:25.783Z,45.03
2023-01-09T03:08:25.761Z,45.95
2023-01-09T03:09:25.758Z,50.12
2023-01-09T03:10:25.781Z,50.59
2023-01-09T03:11:25.744Z,49.92
2023-01-09T03:12:25.739Z,57.37
2023-01-09T03:13:25.725Z,51.16
2023-01-09T03:14:25.761Z,46.52
2023-01-09T03:15:25.716Z,53.98
2023-01-09T03:16:25.779Z,51.16
2023-01-09T03:17:25.702Z,52.45
2023-01-09T03:18:25.693Z,55.26
2023-01-09T03:19:25.705Z,55.35
2023-01-09T03:20:25.670Z,52.08
2023-01-09T03:21:25.665Z,48.36
2023-01-09T03:22:25.670Z,56.80
2023-01-09T03:23:25.645Z,57.65
2023-01-09T03:24:25.671Z,58.07
2023-01-09T03:25:25.642Z,55.11
2023-01-09T03:26:25.628Z,54.47
2023-01-09T03:27:25.612Z,47.83
2023-01-09T03:28:25.603Z,47.81
2023-01-09T03:29:25.630Z,40.60
2023-01-09T03:30:25.590Z,52.21
2023-01-09T03:31:25.595Z,56.44
2023-01-09T03:32:25.568Z,55.93
2023-01-09T03:33:25.563Z,45.87
2023-01-09T03:34:25.565Z,54.39
2023-01-09T03:35:25.576Z,47.72
2023-01-09T03:36:25.543Z,59.41
2023-01-09T03:37:25.532Z,54.61
2023-01-09T03:38:25.527Z,55.39
2023-01-09T03:39:25.528Z,47.46
2023-01-09T03:40:25.543Z,52.64
2023-01-09T03:41:25.513Z,49.82
2023-01-09T03:42:25.496Z,52.35
2023-01-09T03:43:25.500Z,46.56
2023-01-09T03:44:25.478Z,55.91
2023-01-09T03:45:25.546Z,54.25
2023-01-09T03:46:25.468Z,52.42
2023-01-09T03:47:26.460Z,56.86
2023-01-09T03:48:25.450Z,56.42
2023-01-09T03:49:25.496Z,56.70
2023-01-09T03:50:25.445Z,53.72
2023-01-09T03:51:26.427Z,52.13
2023-01-09T03:52:25.420Z,49.23
2023-01-09T03:53:25.415Z,50.42
2023-01-09T03:54:25.431Z,49.63
2023-01-09T03:55:25.394Z,50.84
2023-01-09T03:56:25.384Z,55.07
2023-01-09T03:57:25.378Z,47.07
2023-01-09T03:58:25.373Z,44.61
2023-01-09T03:59:25.374Z,54.83
2023-01-09T04:00:25.384Z,55.30
2023-01-09T04:01:25.450Z,50.52
2023-01-09T04:02:25.348Z,53.02
2023-01-09T04:03:25.340Z,54.72
2023-01-09T04:04:25.328Z,60.31
2023-01-09T04:05:25.345Z,58.89
2023-01-09T04:06:25.313Z,54.45
2023-01-09T04:07:25.310Z,53.69
2023-01-09T04:08:25.297Z,60.72
2023-01-09T04:09:25.288Z,58.89
2023-01-09T04:10:25.314Z,54.56
2023-01-09T04:11:25.301Z,50.65
2023-01-09T04:12:25.270Z,54.62
2023-01-09T04:13:25.265Z,58.00
2023-01-09T04:14:25.253Z,56.23
2023-01-09T04:15:25.273Z,57.78
2023-01-09T04:16:25.283Z,54.16
2023-01-09T04:17:25.225Z,52.29
2023-01-09T04:18:25.232Z,56.66
2023-01-09T04:19:25.221Z,62.00
2023-01-09T04:20:25.241Z,59.22
2023-01-09T04:21:25.213Z,58.99
2023-01-09T04:22:25.210Z,54.95
2023-01-09T04:23:25.193Z,57.08
2023-01-09T04:24:25.177Z,59.97
2023-01-09T04:25:25.197Z,58.33
2023-01-09T04:26:25.168Z,59.99
2023-01-09T04:27:25.161Z,58.68
2023-01-09T04:28:25.161Z,59.60
2023-01-09T04:29:25.138Z,59.48
2023-01-09T04:30:25.174Z,51.28
2023-01-09T04:31:25.155Z,62.39
2023-01-09T04:32:25.120Z,55.53
2023-01-09T04:33:25.118Z,57.35
2023-01-09T04:34:25.103Z,59.39
2023-01-09T04:35:25.129Z,58.11
2023-01-09T04:36:25.085Z,60.43
2023-01-09T04:37:25.080Z,57.15
2023-01-09T04:38:25.069Z,56.00
2023-01-09T04:39:25.061Z,59.91
2023-01-09T04:40:25.082Z,56.72
2023-01-09T04:41:25.051Z,59.33
2023-01-09T04:42:25.071Z,55.22
2023-01-09T04:43:25.045Z,57.13
2023-01-09T04:44:25.021Z,53.62
2023-01-09T04:45:25.042Z,48.63
2023-01-09T04:46:25.007Z,56.15
2023-01-09T04:47:24.999Z,56.08
2023-01-09T04:48:24.999Z,55.93
2023-01-09T04:49:24.985Z,53.73
2023-01-09T04:50:25.001Z,54.59
2023-01-09T04:51:24.970Z,53.57
2023-01-09T04:52:24.954Z,59.45
2023-01-09T04:53:24.958Z,61.18
2023-01-09T04:54:24.940Z,59.27
2023-01-09T04:55:24.966Z,54.65
2023-01-09T04:56:24.929Z,56.51
2023-01-09T04:57:24.920Z,54.39
2023-01-09T04:58:24.915Z,54.58
2023-01-09T04:59:24.908Z,52.27
2023-01-09T05:00:24.919Z,52.80
2023-01-09T05:01:25.004Z,58.35
2023-01-09T05:02:24.883Z,51.32
2023-01-09T05:03:24.880Z,53.22
2023-01-09T05:04:24.897Z,54.04
2023-01-09T05:05:24.885Z,55.84
2023-01-09T05:06:24.855Z,54.93
2023-01-09T05:07:24.845Z,56.37
2023-01-09T05:08:24.840Z,55.61
2023-01-09T05:09:24.839Z,57.11
2023-01-09T05:10:24.853Z,54.19
2023-01-09T05:11:24.832Z,54.61
2023-01-09T05:12:24.808Z,56.15
2023-01-09T05:13:24.797Z,55.52
2023-01-09T05:14:24.789Z,56.04
2023-01-09T05:15:24.801Z,54.19
2023-01-09T05:16:25.897Z,59.57
2023-01-09T05:17:24.764Z,56.15
2023-01-09T05:18:24.761Z,55.32
2023-01-09T05:19:24.747Z,57.95
2023-01-09T05:20:24.747Z,53.74
2023-01-09T05:21:24.821Z,56.98
2023-01-09T05:22:24.725Z,56.72
2023-01-09T05:23:24.721Z,53.48
2023-01-09T05:24:24.708Z,57.58
2023-01-09T05:25:24.707Z,56.90
2023-01-09T05:26:24.718Z,55.91
2023-01-09T05:27:24.687Z,58.59
2023-01-09T05:28:24.679Z,58.16
2023-01-09T05:29:24.668Z,57.61
2023-01-09T05:30:24.664Z,53.73
2023-01-09T05:31:24.721Z,57.10
2023-01-09T05:32:25.644Z,59.67
2023-01-09T05:33:24.681Z,57.48
2023-01-09T05:34:24.664Z,60.76
2023-01-09T05:35:24.625Z,59.28
2023-01-09T05:36:24.643Z,55.41
2023-01-09T05:37:24.615Z,57.64
2023-01-09T05:38:24.604Z,58.99
2023-01-09T05:39:24.600Z,59.16
2023-01-09T05:40:29.072Z,58.74
2023-01-09T05:41:26.614Z,56.65
2023-01-09T05:42:24.584Z,58.79
2023-01-09T05:43:24.561Z,57.63
2023-01-09T05:44:24.561Z,61.73
2023-01-09T05:45:25.589Z,56.93
2023-01-09T05:46:24.576Z,60.97
2023-01-09T05:47:24.540Z,55.67
2023-01-09T05:48:24.550Z,63.55
2023-01-09T05:49:24.532Z,60.95
2023-01-09T05:50:24.523Z,59.31
2023-01-09T05:51:24.527Z,57.14
2023-01-09T05:52:24.512Z,61.49
2023-01-09T05:53:24.501Z,57.89
2023-01-09T05:54:24.493Z,59.38
2023-01-09T05:55:24.484Z,59.57
2023-01-09T05:56:24.487Z,59.10
2023-01-09T05:57:24.461Z,61.09
2023-01-09T05:58:24.450Z,61.58
2023-01-09T05:59:24.447Z,60.37
2023-01-09T06:00:24.451Z,58.18
2023-01-09T06:01:24.551Z,61.08
2023-01-09T06:02:24.516Z,61.83
2023-01-09T06:03:24.415Z,58.37
2023-01-09T06:04:24.408Z,58.55
2023-01-09T06:05:24.394Z,59.20
2023-01-09T06:06:24.416Z,59.10
2023-01-09T06:07:24.394Z,61.41
2023-01-09T06:08:24.385Z,59.76
2023-01-09T06:09:24.368Z,58.03
2023-01-09T06:10:24.373Z,61.71
2023-01-09T06:11:24.384Z,62.65
2023-01-09T06:12:24.342Z,60.21
2023-01-09T06:13:24.340Z,59.66
2023-01-09T06:14:24.329Z,60.87
2023-01-09T06:15:24.327Z,59.08
2023-01-09T06:16:24.358Z,57.64
2023-01-09T06:17:24.305Z,61.94
2023-01-09T06:18:24.296Z,57.77
2023-01-09T06:19:24.295Z,59.53
2023-01-09T06:20:24.273Z,58.57
2023-01-09T06:21:24.333Z,61.53
2023-01-09T06:22:25.273Z,59.31
2023-01-09T06:23:24.276Z,59.32
2023-01-09T06:24:24.248Z,58.36
2023-01-09T06:25:24.248Z,58.24
2023-01-09T06:26:24.262Z,57.80
2023-01-09T06:27:24.228Z,58.56
2023-01-09T06:28:24.223Z,56.14
2023-01-09T06:29:24.208Z,60.44
2023-01-09T06:30:24.208Z,63.01
2023-01-09T06:31:24.233Z,59.72
2023-01-09T06:32:24.220Z,62.94
2023-01-09T06:33:24.183Z,58.25
2023-01-09T06:34:24.173Z,58.70
2023-01-09T06:35:24.174Z,63.88
2023-01-09T06:36:24.184Z,60.97
2023-01-09T06:37:24.146Z,59.96
2023-01-09T06:38:24.148Z,61.56
2023-01-09T06:39:24.140Z,60.75
2023-01-09T06:40:24.141Z,62.52
2023-01-09T06:41:24.144Z,61.04
2023-01-09T06:42:25.117Z,60.63
2023-01-09T06:43:24.110Z,60.52
2023-01-09T06:44:24.096Z,63.18
2023-01-09T06:45:24.098Z,62.47
2023-01-09T06:46:24.179Z,58.62
2023-01-09T06:47:24.075Z,62.52
2023-01-09T06:48:24.077Z,55.73
2023-01-09T06:49:24.055Z,61.49
2023-01-09T06:50:24.056Z,60.16
2023-01-09T06:51:24.073Z,57.05
2023-01-09T06:52:24.038Z,61.01
2023-01-09T06:53:24.023Z,59.42
2023-01-09T06:54:24.023Z,57.15
2023-01-09T06:55:24.068Z,60.73
2023-01-09T06:56:24.031Z,60.04
2023-01-09T06:57:24.020Z,59.54
2023-01-09T06:58:23.989Z,58.69
2023-01-09T06:59:23.985Z,62.75
2023-01-09T07:00:23.971Z,57.52
2023-01-09T07:01:24.094Z,59.77
2023-01-09T07:02:23.958Z,61.53
2023-01-09T07:03:23.979Z,58.41
2023-01-09T07:04:24.015Z,57.04
2023-01-09T07:05:23.936Z,57.45
2023-01-09T07:06:23.950Z,57.20
2023-01-09T07:07:23.922Z,57.97
2023-01-09T07:08:23.905Z,58.39
2023-01-09T07:09:23.902Z,58.61
2023-01-09T07:10:23.900Z,58.88
2023-01-09T07:11:23.909Z,59.95
2023-01-09T07:12:23.878Z,61.25
2023-01-09T07:13:23.864Z,59.08
2023-01-09T07:14:24.856Z,58.67
2023-01-09T07:15:23.859Z,57.07
2023-01-09T07:16:23.939Z,55.48
2023-01-09T07:17:23.848Z,59.69
2023-01-09T07:18:23.834Z,59.39
2023-01-09T07:19:23.816Z,59.09
2023-01-09T07:20:23.815Z,58.20
2023-01-09T07:21:23.841Z,58.82
2023-01-09T07:22:23.794Z,60.25
2023-01-09T07:23:23.812Z,59.53
2023-01-09T07:24:23.781Z,59.58
2023-01-09T07:25:23.769Z,59.18
2023-01-09T07:26:23.805Z,57.35
2023-01-09T07:27:23.775Z,60.73
2023-01-09T07:28:23.763Z,59.25
2023-01-09T07:29:23.750Z,59.13
2023-01-09T07:30:23.745Z,57.71
2023-01-09T07:31:23.804Z,58.35
2023-01-09T07:32:23.725Z,61.32
2023-01-09T07:33:23.716Z,61.95
2023-01-09T07:34:23.703Z,57.67
2023-01-09T07:35:23.715Z,57.53
2023-01-09T07:36:23.718Z,56.51
2023-01-09T07:37:23.679Z,60.02
2023-01-09T07:38:23.683Z,58.11
2023-01-09T07:39:23.664Z,57.10
2023-01-09T07:40:23.666Z,58.67
2023-01-09T07:41:23.677Z,61.11
2023-01-09T07:42:23.650Z,59.69
2023-01-09T07:43:23.640Z,58.78
2023-01-09T07:44:23.629Z,60.48
2023-01-09T07:45:23.649Z,60.70
2023-01-09T07:46:23.696Z,60.02
2023-01-09T07:47:23.600Z,61.42
2023-01-09T07:48:23.601Z,59.60
2023-01-09T07:49:25.358Z,59.81
2023-01-09T07:50:23.578Z,60.37
2023-01-09T07:51:23.607Z,59.55
2023-01-09T07:52:23.584Z,59.63
2023-01-09T07:53:23.562Z,61.75
2023-01-09T07:54:23.557Z,60.26
2023-01-09T07:55:23.562Z,61.32
2023-01-09T07:56:23.564Z,57.23
2023-01-09T07:57:23.530Z,59.46
2023-01-09T07:58:23.527Z,63.21
2023-01-09T07:59:23.515Z,60.57
2023-01-09T08:00:23.511Z,60.31
2023-01-09T08:01:23.643Z,55.94
2023-01-09T08:02:23.595Z,57.64
2023-01-09T08:03:23.483Z,61.52
2023-01-09T08:04:23.478Z,57.06
2023-01-09T08:05:23.483Z,57.33
2023-01-09T08:06:23.481Z,60.02
2023-01-09T08:07:23.463Z,61.60
2023-01-09T08:08:23.456Z,59.91
2023-01-09T08:09:23.441Z,59.19
2023-01-09T08:10:23.432Z,58.25
2023-01-09T08:11:23.454Z,55.86
2023-01-09T08:12:23.416Z,59.18
2023-01-09T08:13:23.419Z,60.77
2023-01-09T08:14:23.402Z,59.32
2023-01-09T08:15:23.393Z,58.42
2023-01-09T08:16:23.448Z,61.22
2023-01-09T08:17:25.207Z,59.09
2023-01-09T08:18:23.374Z,60.91
2023-01-09T08:19:23.359Z,58.41
2023-01-09T08:20:23.359Z,57.04
2023-01-09T08:21:23.376Z,59.64
2023-01-09T08:22:23.328Z,58.77
2023-01-09T08:23:24.348Z,57.93
2023-01-09T08:24:23.323Z,59.24
2023-01-09T08:25:23.342Z,60.31
2023-01-09T08:26:23.331Z,60.02
2023-01-09T08:27:23.301Z,60.17
2023-01-09T08:28:23.293Z,59.22
2023-01-09T08:29:23.301Z,55.92
2023-01-09T08:30:23.293Z,56.25
2023-01-09T08:31:23.326Z,60.38
2023-01-09T08:32:23.263Z,58.57
2023-01-09T08:33:23.261Z,58.39
2023-01-09T08:34:23.256Z,59.80
2023-01-09T08:35:23.247Z,59.13
2023-01-09T08:36:23.299Z,59.24
2023-01-09T08:37:23.236Z,56.79
2023-01-09T08:38:24.214Z,57.50
2023-01-09T08:39:23.203Z,58.80
2023-01-09T08:40:23.201Z,54.42
2023-01-09T08:41:23.225Z,59.48
2023-01-09T08:42:23.186Z,57.34
2023-01-09T08:43:23.181Z,58.68
2023-01-09T08:44:23.172Z,59.49
2023-01-09T08:45:23.158Z,57.61
2023-01-09T08:46:23.232Z,57.63
2023-01-09T08:47:23.140Z,60.94
2023-01-09T08:48:23.135Z,62.00
2023-01-09T08:49:23.132Z,59.48
2023-01-09T08:50:23.123Z,57.48
2023-01-09T08:51:23.113Z,56.75
2023-01-09T08:52:23.138Z,58.07
2023-01-09T08:53:23.100Z,55.88
2023-01-09T08:54:23.097Z,58.24
2023-01-09T08:55:23.116Z,56.69
2023-01-09T08:56:23.087Z,60.78
2023-01-09T08:57:23.104Z,57.05
2023-01-09T08:58:23.062Z,56.80
2023-01-09T08:59:23.055Z,55.30
2023-01-09T09:00:23.047Z,56.05
2023-01-09T09:01:23.050Z,60.93
2023-01-09T09:02:23.112Z,58.15
2023-01-09T09:03:23.026Z,59.42
2023-01-09T09:04:23.049Z,55.97
2023-01-09T09:05:23.009Z,58.00
2023-01-09T09:06:23.004Z,58.31
2023-01-09T09:07:23.019Z,56.10
2023-01-09T09:08:22.985Z,56.46
2023-01-09T09:09:22.977Z,55.35
2023-01-09T09:10:22.979Z,49.30
2023-01-09T09:11:22.964Z,58.20
2023-01-09T09:12:23.006Z,60.12
2023-01-09T09:13:22.946Z,58.83
2023-01-09T09:14:24.956Z,54.12
2023-01-09T09:15:22.928Z,51.78
2023-01-09T09:16:22.971Z,56.72
2023-01-09T09:17:22.936Z,62.16
2023-01-09T09:18:22.941Z,58.24
2023-01-09T09:19:22.896Z,59.00
2023-01-09T09:20:23.006Z,53.92
2023-01-09T09:21:22.885Z,54.15
2023-01-09T09:22:22.904Z,55.31
2023-01-09T09:23:22.867Z,54.82
2023-01-09T09:24:22.859Z,56.03
2023-01-09T09:25:23.845Z,56.94
2023-01-09T09:26:22.843Z,57.10
2023-01-09T09:27:22.843Z,55.30
2023-01-09T09:28:22.849Z,57.20
2023-01-09T09:29:22.826Z,57.11
2023-01-09T09:30:22.811Z,60.98
2023-01-09T09:31:22.870Z,56.77
2023-01-09T09:32:22.806Z,57.18
2023-01-09T09:33:22.828Z,54.20
2023-01-09T09:34:22.783Z,56.21
2023-01-09T09:35:22.797Z,58.07
2023-01-09T09:36:22.782Z,55.87
2023-01-09T09:37:22.753Z,59.11
2023-01-09T09:38:22.782Z,58.42
2023-01-09T09:39:22.744Z,55.97
2023-01-09T09:40:22.729Z,54.74
2023-01-09T09:41:22.739Z,57.10
2023-01-09T09:42:22.718Z,58.52
2023-01-09T09:43:22.736Z,56.69
2023-01-09T09:44:22.699Z,54.76
2023-01-09T09:45:22.689Z,57.23
2023-01-09T09:46:22.753Z,55.86
2023-01-09T09:47:22.672Z,54.11
2023-01-09T09:48:22.691Z,58.97
2023-01-09T09:49:22.655Z,57.88
2023-01-09T09:50:22.703Z,58.58
2023-01-09T09:51:22.648Z,56.24
2023-01-09T09:52:22.631Z,56.14
2023-01-09T09:53:22.649Z,56.40
2023-01-09T09:54:22.615Z,55.19
2023-01-09T09:55:22.608Z,56.40
2023-01-09T09:56:22.612Z,58.23
2023-01-09T09:57:22.624Z,57.74
2023-01-09T09:58:22.612Z,56.54
2023-01-09T09:59:22.581Z,58.89
2023-01-09T10:00:22.609Z,56.93
2023-01-09T10:01:22.557Z,57.93
2023-01-09T10:02:22.600Z,58.31
2023-01-09T10:03:33.080Z,55.69
2023-01-09T10:04:24.539Z,61.52
2023-01-09T10:05:22.546Z,57.26
2023-01-09T10:06:22.522Z,62.50
2023-01-09T10:07:22.524Z,57.74
2023-01-09T10:08:22.505Z,55.63
2023-01-09T10:09:22.522Z,57.97
2023-01-09T10:10:22.579Z,57.10
2023-01-09T10:11:22.485Z,58.75
2023-01-09T10:12:22.482Z,58.75
2023-01-09T10:13:22.495Z,59.46
2023-01-09T10:14:24.648Z,59.63
2023-01-09T10:15:23.452Z,58.81
2023-01-09T10:16:22.617Z,55.88
2023-01-09T10:17:22.437Z,57.95
2023-01-09T10:18:22.434Z,58.85
2023-01-09T10:19:22.451Z,60.27
2023-01-09T10:20:22.433Z,56.05
2023-01-09T10:21:22.404Z,60.46
2023-01-09T10:22:24.416Z,58.10
2023-01-09T10:23:22.389Z,56.88
2023-01-09T10:24:22.428Z,54.38
2023-01-09T10:25:22.382Z,56.43
2023-01-09T10:26:22.415Z,57.87
2023-01-09T10:27:22.377Z,55.77
2023-01-09T10:28:22.351Z,55.93
2023-01-09T10:29:22.368Z,60.18
2023-01-09T10:30:22.327Z,56.19
2023-01-09T10:31:23.354Z,56.56
2023-01-09T10:32:22.321Z,48.45
2023-01-09T10:33:22.350Z,57.34
2023-01-09T10:34:22.331Z,57.23
2023-01-09T10:35:22.296Z,55.49
2023-01-09T10:36:22.293Z,57.91
2023-01-09T10:37:22.283Z,58.22
2023-01-09T10:38:22.302Z,55.64
2023-01-09T10:39:22.270Z,57.87
2023-01-09T10:40:22.257Z,61.24
2023-01-09T10:41:22.274Z,56.50
2023-01-09T10:42:22.237Z,59.55
2023-01-09T10:43:22.239Z,55.43
2023-01-09T10:44:22.261Z,56.16
2023-01-09T10:45:22.222Z,58.51
2023-01-09T10:46:22.326Z,59.77
2023-01-09T10:47:22.200Z,58.78
2023-01-09T10:48:22.186Z,58.61
2023-01-09T10:49:22.206Z,59.96
2023-01-09T10:50:22.176Z,59.28
2023-01-09T10:51:22.176Z,57.41
2023-01-09T10:52:22.245Z,57.31
2023-01-09T10:53:22.173Z,57.48
2023-01-09T10:54:22.191Z,55.37
2023-01-09T10:55:22.142Z,56.83
2023-01-09T10:56:22.126Z,59.28
2023-01-09T10:57:22.120Z,57.97
2023-01-09T10:58:22.112Z,58.49
2023-01-09T10:59:22.131Z,56.01
2023-01-09T11:00:23.578Z,58.49
2023-01-09T11:01:23.094Z,57.03
2023-01-09T11:02:22.092Z,55.90
2023-01-09T11:03:22.155Z,55.95
2023-01-09T11:04:22.068Z,56.00
2023-01-09T11:05:22.060Z,55.87
2023-01-09T11:06:22.051Z,56.28
2023-01-09T11:07:22.048Z,57.31
2023-01-09T11:08:22.080Z,58.17
2023-01-09T11:09:22.028Z,61.34
2023-01-09T11:10:22.878Z,60.26
2023-01-09T11:11:22.013Z,56.35
2023-01-09T11:12:22.005Z,57.55
2023-01-09T11:13:22.028Z,58.71
2023-01-09T11:14:21.995Z,58.16
2023-01-09T11:15:21.991Z,58.07
2023-01-09T11:16:22.078Z,56.81
2023-01-09T11:17:21.972Z,55.49
2023-01-09T11:18:21.993Z,57.58
2023-01-09T11:19:21.955Z,58.72
2023-01-09T11:20:21.947Z,58.14
2023-01-09T11:21:21.935Z,57.76
2023-01-09T11:22:21.927Z,51.64
2023-01-09T11:23:21.941Z,55.79
2023-01-09T11:24:21.912Z,57.39
2023-01-09T11:25:21.899Z,57.38
2023-01-09T11:26:21.909Z,58.93
2023-01-09T11:27:21.887Z,55.42
2023-01-09T11:28:21.919Z,57.55
2023-01-09T11:29:21.869Z,59.25
2023-01-09T11:30:21.880Z,53.52
2023-01-09T11:31:21.884Z,55.57
2023-01-09T11:32:21.858Z,58.44
2023-01-09T11:33:21.841Z,56.26
2023-01-09T11:34:21.854Z,57.32
2023-01-09T11:35:21.828Z,56.04
2023-01-09T11:36:21.852Z,59.23
2023-01-09T11:37:21.814Z,60.14
2023-01-09T11:38:21.802Z,56.29
2023-01-09T11:39:21.816Z,55.18
2023-01-09T11:40:21.818Z,59.22
2023-01-09T11:41:21.776Z,56.89
2023-01-09T11:42:21.777Z,53.79
2023-01-09T11:43:21.788Z,57.51
2023-01-09T11:44:21.777Z,58.19
2023-01-09T11:45:21.749Z,58.37
2023-01-09T11:46:21.874Z,60.84
2023-01-09T11:47:21.735Z,59.04
2023-01-09T11:48:21.731Z,62.30
2023-01-09T11:49:21.744Z,59.67
2023-01-09T11:50:21.726Z,59.00
2023-01-09T11:51:21.712Z,56.61
2023-01-09T11:52:21.703Z,58.91
2023-01-09T11:53:21.701Z,60.36
2023-01-09T11:54:21.722Z,59.07
2023-01-09T11:55:22.577Z,59.18
2023-01-09T11:56:21.668Z,62.21
2023-01-09T11:57:21.663Z,59.48
2023-01-09T11:58:21.657Z,58.74
2023-01-09T11:59:21.671Z,58.89
2023-01-09T12:00:21.683Z,56.88
2023-01-09T12:01:21.629Z,58.58
2023-01-09T12:02:21.692Z,59.64
2023-01-09T12:03:21.661Z,56.12
2023-01-09T12:04:21.637Z,57.18
2023-01-09T12:05:21.596Z,58.63
2023-01-09T12:06:21.596Z,61.88
2023-01-09T12:07:21.584Z,58.22
2023-01-09T12:08:21.577Z,58.86
2023-01-09T12:09:21.590Z,61.35
2023-01-09T12:10:21.565Z,60.79
2023-01-09T12:11:21.559Z,56.46
2023-01-09T12:12:21.541Z,60.47
2023-01-09T12:13:21.541Z,61.57
2023-01-09T12:14:21.564Z,59.37
2023-01-09T12:15:21.526Z,59.08
2023-01-09T12:16:21.585Z,59.47
2023-01-09T12:17:21.510Z,61.99
2023-01-09T12:18:21.508Z,58.77
2023-01-09T12:19:21.520Z,59.87
2023-01-09T12:20:21.487Z,60.11
2023-01-09T12:21:21.486Z,57.74
2023-01-09T12:22:21.484Z,58.29
2023-01-09T12:23:21.470Z,61.26
2023-01-09T12:24:21.475Z,57.95
2023-01-09T12:25:22.448Z,61.29
2023-01-09T12:26:21.442Z,60.62
2023-01-09T12:27:21.437Z,61.28
2023-01-09T12:28:21.439Z,59.73
2023-01-09T12:29:21.442Z,60.77
2023-01-09T12:30:21.405Z,58.28
2023-01-09T12:31:21.427Z,59.42
2023-01-09T12:32:21.394Z,61.93
2023-01-09T12:33:21.382Z,59.49
2023-01-09T12:34:21.405Z,60.51
2023-01-09T12:35:21.368Z,62.04
2023-01-09T12:36:21.365Z,61.31
2023-01-09T12:37:21.351Z,58.52
2023-01-09T12:38:21.348Z,60.05
2023-01-09T12:39:21.367Z,60.89
2023-01-09T12:40:21.333Z,58.11
2023-01-09T12:41:21.326Z,59.90
2023-01-09T12:42:21.318Z,60.84
2023-01-09T12:43:21.297Z,63.29
2023-01-09T12:44:34.611Z,59.83
2023-01-09T12:45:23.310Z,55.79
2023-01-09T12:46:21.304Z,60.66
2023-01-09T12:47:21.276Z,57.16
2023-01-09T12:48:21.271Z,59.37
2023-01-09T12:49:21.288Z,58.14
2023-01-09T12:50:21.256Z,59.75
2023-01-09T12:51:21.248Z,55.95
2023-01-09T12:52:21.245Z,60.47